createdAt,value
2022-08-02T00:00:41.919Z,0.00
2022-08-02T00:01:41.987Z,0.00
2022-08-02T00:02:41.964Z,0.00
2022-08-02T00:03:41.983Z,0.00
2022-08-02T00:04:42.003Z,0.00
2022-08-02T00:05:42.026Z,0.00
2022-08-02T00:06:42.047Z,0.00
2022-08-02T00:07:42.066Z,0.00
2022-08-02T00:08:42.090Z,0.00
2022-08-02T00:09:42.112Z,0.00
2022-08-02T00:10:42.135Z,0.00
2022-08-02T00:11:43.161Z,0.00
2022-08-02T00:12:42.175Z,0.00
2022-08-02T00:13:42.194Z,0.00
2022-08-02T00:14:42.217Z,0.00
2022-08-02T00:15:42.240Z,0.00
2022-08-02T00:16:42.266Z,0.00
2022-08-02T00:17:42.281Z,0.00
2022-08-02T00:18:42.304Z,0.00
2022-08-02T00:19:42.329Z,0.00
2022-08-02T00:20:42.346Z,0.00
2022-08-02T00:21:42.368Z,0.00
2022-08-02T00:22:42.388Z,0.00
2022-08-02T00:24:04.935Z,0.00
2022-08-02T00:24:42.434Z,0.00
2022-08-02T00:25:54.578Z,0.00
2022-08-02T00:26:42.479Z,0.00
2022-08-02T00:27:42.496Z,0.00
2022-08-02T00:28:42.521Z,0.00
2022-08-02T00:29:52.777Z,0.00
2022-08-02T00:30:42.561Z,0.00
2022-08-02T00:31:42.590Z,0.00
2022-08-02T00:32:42.609Z,0.00
2022-08-02T00:34:28.045Z,0.00
2022-08-02T00:34:42.645Z,0.00
2022-08-02T00:35:42.668Z,0.00
2022-08-02T00:36:42.690Z,0.00
2022-08-02T00:37:42.709Z,0.00
2022-08-02T00:38:42.733Z,0.00
2022-08-02T00:39:42.754Z,0.00
2022-08-02T00:40:42.778Z,0.00
2022-08-02T00:41:42.796Z,0.00
2022-08-02T00:42:42.816Z,0.00
2022-08-02T00:43:42.842Z,0.00
2022-08-02T00:44:42.860Z,0.00
2022-08-02T00:46:02.984Z,0.00
2022-08-02T00:46:42.905Z,0.00
2022-08-02T00:47:42.925Z,0.00
2022-08-02T00:48:43.173Z,0.00
2022-08-02T00:49:42.969Z,0.00
2022-08-02T00:50:42.988Z,0.00
2022-08-02T00:51:43.010Z,0.00
2022-08-02T00:52:43.030Z,0.00
2022-08-02T00:53:43.053Z,0.00
2022-08-02T00:54:43.074Z,0.00
2022-08-02T00:55:43.100Z,0.00
2022-08-02T00:56:49.568Z,0.00
2022-08-02T00:57:43.138Z,0.00
2022-08-02T00:58:43.161Z,0.00
2022-08-02T00:59:43.182Z,0.00
2022-08-02T01:00:43.205Z,0.00
2022-08-02T01:01:56.740Z,0.00
2022-08-02T01:02:43.252Z,0.00
2022-08-02T01:03:43.268Z,0.00
2022-08-02T01:04:43.299Z,0.00
2022-08-02T01:05:55.781Z,0.00
2022-08-02T01:06:43.331Z,0.00
2022-08-02T01:07:43.356Z,0.00
2022-08-02T01:08:43.849Z,0.00
2022-08-02T01:09:43.404Z,0.00
2022-08-02T01:10:43.420Z,0.00
2022-08-02T01:11:43.439Z,0.00
2022-08-02T01:12:43.462Z,0.00
2022-08-02T01:13:43.482Z,0.00
2022-08-02T01:14:43.514Z,0.00
2022-08-02T01:15:43.527Z,0.00
2022-08-02T01:16:43.551Z,0.00
2022-08-02T01:17:43.568Z,0.00
2022-08-02T01:18:43.589Z,0.00
2022-08-02T01:19:43.617Z,0.00
2022-08-02T01:20:43.633Z,0.00
2022-08-02T01:21:43.655Z,0.00
2022-08-02T01:23:01.494Z,0.00
2022-08-02T01:23:43.698Z,0.00
2022-08-02T01:24:43.718Z,0.00
2022-08-02T01:25:43.742Z,0.00
2022-08-02T01:26:43.766Z,0.00
2022-08-02T01:27:43.783Z,0.00
2022-08-02T01:28:43.806Z,0.00
2022-08-02T01:29:43.831Z,0.00
2022-08-02T01:30:43.849Z,0.00
2022-08-02T01:31:43.871Z,0.00
2022-08-02T01:32:43.893Z,0.00
2022-08-02T01:33:43.911Z,0.00
2022-08-02T01:34:43.934Z,0.00
2022-08-02T01:35:47.381Z,0.00
2022-08-02T01:36:43.977Z,0.00
2022-08-02T01:37:43.997Z,0.00
2022-08-02T01:38:44.021Z,0.00
2022-08-02T01:39:44.042Z,0.00
2022-08-02T01:40:44.064Z,0.00
2022-08-02T01:41:44.084Z,0.00
2022-08-02T01:42:44.105Z,0.00
2022-08-02T01:43:44.127Z,0.00
2022-08-02T01:44:44.151Z,0.00
2022-08-02T01:45:44.169Z,0.00
2022-08-02T01:46:44.199Z,0.00
2022-08-02T01:47:44.212Z,0.00
2022-08-02T01:48:44.235Z,0.00
2022-08-02T01:49:44.308Z,0.00
2022-08-02T01:50:44.276Z,0.00
2022-08-02T01:51:44.298Z,0.00
2022-08-02T01:52:53.301Z,0.00
2022-08-02T01:53:44.339Z,0.00
2022-08-02T01:54:44.362Z,0.00
2022-08-02T01:55:57.799Z,0.00
2022-08-02T01:56:44.404Z,0.00
2022-08-02T01:57:44.427Z,0.00
2022-08-02T01:58:44.447Z,0.00
2022-08-02T01:59:44.467Z,0.00
2022-08-02T02:00:44.494Z,0.00
2022-08-02T02:01:44.543Z,0.00
2022-08-02T02:02:44.532Z,0.00
2022-08-02T02:03:44.555Z,0.00
2022-08-02T02:04:44.580Z,0.00
2022-08-02T02:05:44.597Z,0.00
2022-08-02T02:06:44.620Z,0.00
2022-08-02T02:07:44.642Z,0.00
2022-08-02T02:08:44.663Z,0.00
2022-08-02T02:09:50.290Z,0.00
2022-08-02T02:10:44.705Z,0.00
2022-08-02T02:12:10.164Z,0.00
2022-08-02T02:12:44.748Z,0.00
2022-08-02T02:13:44.767Z,0.00
2022-08-02T02:14:50.274Z,0.00
2022-08-02T02:15:44.811Z,0.00
2022-08-02T02:16:44.832Z,0.00
2022-08-02T02:18:11.686Z,0.00
2022-08-02T02:18:44.886Z,0.00
2022-08-02T02:19:44.896Z,0.00
2022-08-02T02:20:44.917Z,0.00
2022-08-02T02:21:44.939Z,0.00
2022-08-02T02:22:44.958Z,0.00
2022-08-02T02:23:44.981Z,0.00
2022-08-02T02:24:45.003Z,0.00
2022-08-02T02:25:46.859Z,0.00
2022-08-02T02:26:50.707Z,0.00
2022-08-02T02:27:45.066Z,0.00
2022-08-02T02:28:45.088Z,0.00
2022-08-02T02:29:45.107Z,0.00
2022-08-02T02:30:45.130Z,0.00
2022-08-02T02:31:45.156Z,0.00
2022-08-02T02:32:45.174Z,0.00
2022-08-02T02:33:45.194Z,0.00
2022-08-02T02:34:45.225Z,0.00
2022-08-02T02:35:45.238Z,0.00
2022-08-02T02:36:45.258Z,0.00
2022-08-02T02:37:45.278Z,0.00
2022-08-02T02:38:45.302Z,0.00
2022-08-02T02:39:45.321Z,0.00
2022-08-02T02:40:45.346Z,0.00
2022-08-02T02:41:45.363Z,0.00
2022-08-02T02:42:49.342Z,0.00
2022-08-02T02:43:45.407Z,0.00
2022-08-02T02:44:45.429Z,0.00
2022-08-02T02:45:45.449Z,0.00
2022-08-02T02:46:45.473Z,0.00
2022-08-02T02:47:45.503Z,0.00
2022-08-02T02:48:45.517Z,0.00
2022-08-02T02:49:45.533Z,0.00
2022-08-02T02:50:45.553Z,0.00
2022-08-02T02:51:45.578Z,0.00
2022-08-02T02:52:45.598Z,0.00
2022-08-02T02:54:32.044Z,0.00
2022-08-02T02:54:45.641Z,0.00
2022-08-02T02:56:02.281Z,0.00
2022-08-02T02:56:45.683Z,0.00
2022-08-02T02:57:45.704Z,0.00
2022-08-02T02:58:45.727Z,0.00
2022-08-02T02:59:49.635Z,0.00
2022-08-02T03:00:45.815Z,0.00
2022-08-02T03:01:55.401Z,0.00
2022-08-02T03:02:45.813Z,0.00
2022-08-02T03:03:45.834Z,0.00
2022-08-02T03:04:57.153Z,0.00
2022-08-02T03:05:45.875Z,0.00
2022-08-02T03:06:45.893Z,0.00
2022-08-02T03:07:45.922Z,0.00
2022-08-02T03:08:45.938Z,0.00
2022-08-02T03:09:53.718Z,0.00
2022-08-02T03:10:45.980Z,0.00
2022-08-02T03:11:46.003Z,0.00
2022-08-02T03:12:46.025Z,0.00
2022-08-02T03:13:46.043Z,0.00
2022-08-02T03:14:46.066Z,0.00
2022-08-02T03:15:46.087Z,0.00
2022-08-02T03:16:46.114Z,0.00
2022-08-02T03:17:46.134Z,0.00
2022-08-02T03:18:46.150Z,0.00
2022-08-02T03:19:46.175Z,0.00
2022-08-02T03:20:46.194Z,0.00
2022-08-02T03:21:46.215Z,5.63
2022-08-02T03:22:46.237Z,5.63
2022-08-02T03:23:46.256Z,5.63
2022-08-02T03:24:46.275Z,5.63
2022-08-02T03:25:46.298Z,5.63
2022-08-02T03:26:46.319Z,5.63
2022-08-02T03:27:46.339Z,5.63
2022-08-02T03:28:46.361Z,5.63
2022-08-02T03:29:46.380Z,5.63
2022-08-02T03:30:46.403Z,5.63
2022-08-02T03:31:46.423Z,11.25
2022-08-02T03:32:46.444Z,11.25
2022-08-02T03:33:46.465Z,11.25
2022-08-02T03:34:46.487Z,11.25
2022-08-02T03:35:46.509Z,11.25
2022-08-02T03:36:46.529Z,16.88
2022-08-02T03:37:46.551Z,16.88
2022-08-02T03:38:46.567Z,16.88
2022-08-02T03:39:52.960Z,16.88
2022-08-02T03:40:46.612Z,22.50
2022-08-02T03:41:46.635Z,22.50
2022-08-02T03:42:46.659Z,22.50
2022-08-02T03:43:46.676Z,22.50
2022-08-02T03:44:46.696Z,28.13
2022-08-02T03:45:46.716Z,28.13
2022-08-02T03:46:46.740Z,28.13
2022-08-02T03:47:46.760Z,28.13
2022-08-02T03:48:46.780Z,33.75
2022-08-02T03:49:46.799Z,33.75
2022-08-02T03:50:46.821Z,33.75
2022-08-02T03:51:46.842Z,33.75
2022-08-02T03:52:46.865Z,39.38
2022-08-02T03:53:46.881Z,39.38
2022-08-02T03:54:46.905Z,39.38
2022-08-02T03:55:46.925Z,45.00
2022-08-02T03:56:46.947Z,45.00
2022-08-02T03:57:46.970Z,45.00
2022-08-02T03:58:49.318Z,45.00
2022-08-02T03:59:47.009Z,45.00
2022-08-02T04:00:47.071Z,45.00
2022-08-02T04:01:47.048Z,45.00
2022-08-02T04:02:47.072Z,45.00
2022-08-02T04:03:47.096Z,50.63
2022-08-02T04:04:47.115Z,50.63
2022-08-02T04:06:01.079Z,50.63
2022-08-02T04:06:47.160Z,50.63
2022-08-02T04:08:33.296Z,50.63
2022-08-02T04:08:47.198Z,56.25
2022-08-02T04:09:47.216Z,61.88
2022-08-02T04:10:47.236Z,67.50
2022-08-02T04:11:47.255Z,67.50
2022-08-02T04:12:47.277Z,67.50
2022-08-02T04:13:47.298Z,61.88
2022-08-02T04:14:47.320Z,56.25
2022-08-02T04:15:47.339Z,56.25
2022-08-02T04:16:47.362Z,56.25
2022-08-02T04:17:47.383Z,61.88
2022-08-02T04:18:47.405Z,61.88
2022-08-02T04:19:47.423Z,61.88
2022-08-02T04:20:47.444Z,61.88
2022-08-02T04:21:51.236Z,61.88
2022-08-02T04:22:47.486Z,67.50
2022-08-02T04:23:47.508Z,73.13
2022-08-02T04:24:47.529Z,78.75
2022-08-02T04:25:47.548Z,90.00
2022-08-02T04:26:48.880Z,101.25
2022-08-02T04:28:15.299Z,112.50
2022-08-02T04:28:47.612Z,112.50
2022-08-02T04:29:47.631Z,106.88
2022-08-02T04:30:47.682Z,101.25
2022-08-02T04:31:47.677Z,95.63
2022-08-02T04:32:47.693Z,90.00
2022-08-02T04:33:47.715Z,95.63
2022-08-02T04:35:17.688Z,101.25
2022-08-02T04:35:47.758Z,101.25
2022-08-02T04:36:47.777Z,101.25
2022-08-02T04:38:09.913Z,95.63
2022-08-02T04:38:47.818Z,95.63
2022-08-02T04:39:47.841Z,95.63
2022-08-02T04:40:47.862Z,101.25
2022-08-02T04:41:47.891Z,95.63
2022-08-02T04:42:47.930Z,95.63
2022-08-02T04:43:47.924Z,101.25
2022-08-02T04:44:47.944Z,101.25
2022-08-02T04:45:47.966Z,95.63
2022-08-02T04:46:47.989Z,95.63
2022-08-02T04:48:02.358Z,95.63
2022-08-02T04:48:48.027Z,101.25
2022-08-02T04:49:48.074Z,101.25
2022-08-02T04:50:48.075Z,106.88
2022-08-02T04:51:48.095Z,106.88
2022-08-02T04:52:48.121Z,106.88
2022-08-02T04:53:48.134Z,112.50
2022-08-02T04:54:48.155Z,112.50
2022-08-02T04:55:48.177Z,112.50
2022-08-02T04:56:48.199Z,123.75
2022-08-02T04:57:52.483Z,135.00
2022-08-02T04:58:48.240Z,157.50
2022-08-02T04:59:52.795Z,180.00
2022-08-02T05:00:48.329Z,202.50
2022-08-02T05:01:48.303Z,213.75
2022-08-02T05:02:48.326Z,213.75
2022-08-02T05:03:48.346Z,208.13
2022-08-02T05:04:48.370Z,196.88
2022-08-02T05:05:48.388Z,185.63
2022-08-02T05:06:48.412Z,180.00
2022-08-02T05:07:48.432Z,180.00
2022-08-02T05:08:53.045Z,180.00
2022-08-02T05:09:48.475Z,180.00
2022-08-02T05:10:48.496Z,185.63
2022-08-02T05:11:54.835Z,185.63
2022-08-02T05:12:48.539Z,185.63
2022-08-02T05:13:58.440Z,191.25
2022-08-02T05:14:48.582Z,191.25
2022-08-02T05:15:48.603Z,191.25
2022-08-02T05:16:48.623Z,191.25
2022-08-02T05:17:48.919Z,180.00
2022-08-02T05:18:48.669Z,174.38
2022-08-02T05:19:48.689Z,168.75
2022-08-02T05:20:48.710Z,157.50
2022-08-02T05:21:48.732Z,163.13
2022-08-02T05:22:48.751Z,163.13
2022-08-02T05:23:48.774Z,168.75
2022-08-02T05:24:48.796Z,174.38
2022-08-02T05:25:48.817Z,174.38
2022-08-02T05:26:48.837Z,174.38
2022-08-02T05:27:48.860Z,174.38
2022-08-02T05:28:48.884Z,180.00
2022-08-02T05:29:53.054Z,180.00
2022-08-02T05:30:48.923Z,180.00
2022-08-02T05:31:48.951Z,180.00
2022-08-02T05:32:48.967Z,185.63
2022-08-02T05:33:48.988Z,191.25
2022-08-02T05:34:49.026Z,236.25
2022-08-02T05:35:49.033Z,258.75
2022-08-02T05:36:49.052Z,236.25
2022-08-02T05:37:49.077Z,219.38
2022-08-02T05:38:49.831Z,225.00
2022-08-02T05:39:55.498Z,247.50
2022-08-02T05:40:54.542Z,241.88
2022-08-02T05:41:49.158Z,264.38
2022-08-02T05:42:49.181Z,281.25
2022-08-02T05:43:49.201Z,298.13
2022-08-02T05:44:49.223Z,331.88
2022-08-02T05:45:49.245Z,292.50
2022-08-02T05:46:49.266Z,270.00
2022-08-02T05:47:49.288Z,241.88
2022-08-02T05:48:49.440Z,236.25
2022-08-02T05:49:49.334Z,270.00
2022-08-02T05:50:49.356Z,253.13
2022-08-02T05:51:49.378Z,225.00
2022-08-02T05:52:49.402Z,230.63
2022-08-02T05:53:49.419Z,230.63
2022-08-02T05:54:49.443Z,225.00
2022-08-02T05:55:49.463Z,213.75
2022-08-02T05:56:49.510Z,208.13
2022-08-02T05:57:49.508Z,213.75
2022-08-02T05:58:49.530Z,236.25
2022-08-02T05:59:49.549Z,219.38
2022-08-02T06:00:49.574Z,202.50
2022-08-02T06:01:49.639Z,236.25
2022-08-02T06:02:49.617Z,253.13
2022-08-02T06:03:49.641Z,270.00
2022-08-02T06:04:49.660Z,298.13
2022-08-02T06:05:49.683Z,292.50
2022-08-02T06:06:49.705Z,270.00
2022-08-02T06:07:49.726Z,292.50
2022-08-02T06:08:49.747Z,343.13
2022-08-02T06:09:49.769Z,365.63
2022-08-02T06:10:49.791Z,343.13
2022-08-02T06:12:01.672Z,365.63
2022-08-02T06:12:49.841Z,331.88
2022-08-02T06:13:49.859Z,292.50
2022-08-02T06:14:54.090Z,286.88
2022-08-02T06:15:52.936Z,286.88
2022-08-02T06:16:49.924Z,292.50
2022-08-02T06:17:50.585Z,303.75
2022-08-02T06:18:49.969Z,303.75
2022-08-02T06:19:52.175Z,348.75
2022-08-02T06:20:50.014Z,360.00
2022-08-02T06:22:33.794Z,348.75
2022-08-02T06:22:50.059Z,354.38
2022-08-02T06:23:58.130Z,331.88
2022-08-02T06:24:50.103Z,331.88
2022-08-02T06:25:51.677Z,343.13
2022-08-02T06:26:50.149Z,388.13
2022-08-02T06:27:50.170Z,416.25
2022-08-02T06:28:50.193Z,393.75
2022-08-02T06:29:50.215Z,461.25
2022-08-02T06:30:50.240Z,534.38
2022-08-02T06:31:50.262Z,528.75
2022-08-02T06:32:50.284Z,579.38
2022-08-02T06:33:50.310Z,669.38
2022-08-02T06:34:50.333Z,855.00
2022-08-02T06:35:50.353Z,978.75
2022-08-02T06:36:50.375Z,995.63
2022-08-02T06:37:50.397Z,961.88
2022-08-02T06:38:50.977Z,838.13
2022-08-02T06:39:50.444Z,871.88
2022-08-02T06:40:50.469Z,888.75
2022-08-02T06:41:50.492Z,1006.88
2022-08-02T06:42:50.513Z,1051.88
2022-08-02T06:43:50.540Z,1108.13
2022-08-02T06:44:53.095Z,1096.88
2022-08-02T06:45:50.589Z,1096.88
2022-08-02T06:47:11.723Z,1102.50
2022-08-02T06:47:50.636Z,1153.13
2022-08-02T06:48:50.702Z,1164.38
2022-08-02T06:49:51.574Z,1175.63
2022-08-02T06:50:50.711Z,1181.25
2022-08-02T06:51:50.741Z,1209.38
2022-08-02T06:52:50.767Z,1209.38
2022-08-02T06:53:50.789Z,1192.50
2022-08-02T06:54:50.814Z,1198.13
2022-08-02T06:55:50.843Z,1198.13
2022-08-02T06:56:50.867Z,1192.50
2022-08-02T06:57:50.894Z,1198.13
2022-08-02T06:58:50.917Z,1215.00
2022-08-02T06:59:50.951Z,1265.63
2022-08-02T07:00:50.982Z,1215.00
2022-08-02T07:01:51.019Z,1141.88
2022-08-02T07:02:51.038Z,1102.50
2022-08-02T07:03:51.054Z,1186.88
2022-08-02T07:04:51.080Z,1271.25
2022-08-02T07:05:51.108Z,1203.75
2022-08-02T07:06:51.134Z,1237.50
2022-08-02T07:07:51.161Z,1271.25
2022-08-02T07:09:11.207Z,1237.50
2022-08-02T07:10:00.024Z,1186.88
2022-08-02T07:10:51.246Z,1096.88
2022-08-02T07:11:51.273Z,973.13
2022-08-02T07:12:51.301Z,945.00
2022-08-02T07:13:51.327Z,1051.88
2022-08-02T07:14:51.354Z,1125.00
2022-08-02T07:15:51.383Z,1209.38
2022-08-02T07:16:51.409Z,1451.25
2022-08-02T07:17:51.439Z,1445.63
2022-08-02T07:18:51.476Z,1496.25
2022-08-02T07:19:51.496Z,1563.75
2022-08-02T07:20:51.531Z,1344.38
2022-08-02T07:21:57.292Z,1012.50
2022-08-02T07:22:51.583Z,950.63
2022-08-02T07:23:51.609Z,916.88
2022-08-02T07:24:51.644Z,1063.13
2022-08-02T07:26:03.554Z,1181.25
2022-08-02T07:27:10.646Z,1158.75
2022-08-02T07:27:51.722Z,1400.63
2022-08-02T07:28:51.750Z,1490.63
2022-08-02T07:29:51.779Z,1518.75
2022-08-02T07:30:51.807Z,1440.00
2022-08-02T07:31:51.838Z,1513.13
2022-08-02T07:32:51.865Z,1558.13
2022-08-02T07:33:51.895Z,1591.88
2022-08-02T07:34:53.124Z,1608.75
2022-08-02T07:35:51.951Z,1591.88
2022-08-02T07:36:51.987Z,1603.13
2022-08-02T07:37:55.614Z,1569.38
2022-08-02T07:38:52.041Z,1541.25
2022-08-02T07:39:52.070Z,1558.13
2022-08-02T07:40:52.097Z,1575.00
2022-08-02T07:41:52.129Z,1631.25
2022-08-02T07:42:52.394Z,1676.25
2022-08-02T07:43:52.186Z,1676.25
2022-08-02T07:44:52.219Z,1642.50
2022-08-02T07:45:55.720Z,1653.75
2022-08-02T07:46:52.278Z,1710.00
2022-08-02T07:47:52.325Z,1726.88
2022-08-02T07:48:52.428Z,1726.88
2022-08-02T07:49:52.365Z,1732.50
2022-08-02T07:50:52.395Z,1698.75
2022-08-02T07:51:52.426Z,1704.38
2022-08-02T07:52:53.649Z,1608.75
2022-08-02T07:54:02.469Z,1648.13
2022-08-02T07:54:52.515Z,1485.00
2022-08-02T07:55:52.546Z,1608.75
2022-08-02T07:56:58.215Z,1597.50
2022-08-02T07:57:52.608Z,1541.25
2022-08-02T07:58:52.641Z,1631.25
2022-08-02T07:59:52.675Z,1771.88
2022-08-02T08:00:52.703Z,1816.88
2022-08-02T08:01:52.818Z,1822.50
2022-08-02T08:02:56.229Z,1845.00
2022-08-02T08:03:52.792Z,1800.00
2022-08-02T08:04:52.821Z,1828.13
2022-08-02T08:05:52.851Z,1850.63
2022-08-02T08:06:52.880Z,1861.88
2022-08-02T08:07:52.920Z,1867.50
2022-08-02T08:08:52.944Z,1873.13
2022-08-02T08:09:56.351Z,1878.75
2022-08-02T08:10:53.003Z,1873.13
2022-08-02T08:11:53.035Z,1890.00
2022-08-02T08:12:53.066Z,1890.00
2022-08-02T08:13:53.096Z,1906.88
2022-08-02T08:14:53.128Z,1918.13
2022-08-02T08:15:53.159Z,1912.50
2022-08-02T08:16:53.190Z,1929.38
2022-08-02T08:17:53.220Z,1940.63
2022-08-02T08:18:53.250Z,1951.88
2022-08-02T08:19:53.372Z,1946.25
2022-08-02T08:20:53.314Z,1957.50
2022-08-02T08:21:53.346Z,1951.88
2022-08-02T08:22:53.385Z,1957.50
2022-08-02T08:23:53.409Z,1968.75
2022-08-02T08:24:53.441Z,1980.00
2022-08-02T08:25:53.472Z,1985.63
2022-08-02T08:26:53.503Z,1991.25
2022-08-02T08:27:53.535Z,1996.88
2022-08-02T08:28:53.568Z,2008.13
2022-08-02T08:29:53.597Z,2013.75
2022-08-02T08:30:53.630Z,2008.13
2022-08-02T08:31:53.660Z,1715.63
2022-08-02T08:32:53.696Z,933.75
2022-08-02T08:33:53.725Z,410.63
2022-08-02T08:34:53.755Z,624.38
2022-08-02T08:35:53.787Z,1366.88
2022-08-02T08:36:53.819Z,1845.00
2022-08-02T08:37:53.845Z,1918.13
2022-08-02T08:38:53.880Z,1929.38
2022-08-02T08:39:58.490Z,1946.25
2022-08-02T08:40:53.942Z,1991.25
2022-08-02T08:41:53.970Z,2002.50
2022-08-02T08:42:54.002Z,1980.00
2022-08-02T08:43:54.031Z,1996.88
2022-08-02T08:44:54.059Z,2008.13
2022-08-02T08:45:55.756Z,2013.75
2022-08-02T08:46:54.119Z,1906.88
2022-08-02T08:47:54.151Z,2013.75
2022-08-02T08:48:54.222Z,1490.63
2022-08-02T08:49:54.211Z,686.25
2022-08-02T08:50:54.240Z,630.00
2022-08-02T08:51:54.271Z,1355.63
2022-08-02T08:52:54.304Z,1895.63
2022-08-02T08:53:54.331Z,1912.50
2022-08-02T08:54:54.361Z,1980.00
2022-08-02T08:55:54.391Z,2064.38
2022-08-02T08:56:54.418Z,2081.25
2022-08-02T08:57:54.448Z,2041.88
2022-08-02T08:58:54.477Z,2131.88
2022-08-02T08:59:54.507Z,2182.50
2022-08-02T09:00:54.562Z,2160.00
2022-08-02T09:01:54.618Z,2131.88
2022-08-02T09:02:54.593Z,2193.75
2022-08-02T09:03:54.623Z,2199.38
2022-08-02T09:04:55.406Z,2182.50
2022-08-02T09:05:54.681Z,2176.88
2022-08-02T09:06:54.711Z,2188.13
2022-08-02T09:07:54.741Z,2216.25
2022-08-02T09:08:54.769Z,2238.75
2022-08-02T09:09:54.799Z,2266.88
2022-08-02T09:10:54.829Z,2278.13
2022-08-02T09:11:54.874Z,2300.63
2022-08-02T09:12:54.898Z,2272.50
2022-08-02T09:13:54.932Z,2261.25
2022-08-02T09:14:54.946Z,2255.63
2022-08-02T09:15:54.977Z,2306.25
2022-08-02T09:16:55.005Z,2340.00
2022-08-02T09:17:55.036Z,2356.88
2022-08-02T09:18:55.066Z,2373.75
2022-08-02T09:19:55.098Z,2176.88
2022-08-02T09:20:55.129Z,1957.50
2022-08-02T09:21:55.156Z,1878.75
2022-08-02T09:22:55.189Z,2109.38
2022-08-02T09:23:55.225Z,2131.88
2022-08-02T09:24:55.247Z,2205.00
2022-08-02T09:25:59.575Z,2255.63
2022-08-02T09:26:55.307Z,2323.13
2022-08-02T09:27:55.339Z,2345.63
2022-08-02T09:28:55.381Z,2120.63
2022-08-02T09:30:12.012Z,1361.25
2022-08-02T09:30:55.425Z,635.63
2022-08-02T09:31:55.457Z,1001.25
2022-08-02T09:32:55.484Z,1918.13
2022-08-02T09:33:55.512Z,2356.88
2022-08-02T09:34:55.545Z,2311.88
2022-08-02T09:36:07.296Z,2255.63
2022-08-02T09:36:55.600Z,2053.13
2022-08-02T09:37:55.628Z,1732.50
2022-08-02T09:38:55.664Z,1895.63
2022-08-02T09:39:58.388Z,1991.25
2022-08-02T09:40:55.720Z,1957.50
2022-08-02T09:41:55.751Z,781.88
2022-08-02T09:42:55.781Z,1130.63
2022-08-02T09:44:05.149Z,1248.75
2022-08-02T09:44:55.847Z,838.13
2022-08-02T09:45:55.870Z,1248.75
2022-08-02T09:46:55.900Z,1479.38
2022-08-02T09:47:55.929Z,1243.13
2022-08-02T09:48:55.979Z,1321.88
2022-08-02T09:49:55.990Z,1276.88
2022-08-02T09:50:56.018Z,1231.88
2022-08-02T09:51:56.049Z,1203.75
2022-08-02T09:52:56.081Z,1220.63
2022-08-02T09:54:07.991Z,1366.88
2022-08-02T09:54:56.140Z,1912.50
2022-08-02T09:55:56.177Z,2424.38
2022-08-02T09:56:56.203Z,2649.38
2022-08-02T09:57:56.232Z,2559.38
2022-08-02T09:58:56.262Z,2115.00
2022-08-02T09:59:56.294Z,1456.88
2022-08-02T10:00:56.422Z,1361.25
2022-08-02T10:02:01.758Z,1968.75
2022-08-02T10:02:56.386Z,2536.88
2022-08-02T10:03:56.420Z,2587.50
2022-08-02T10:04:56.450Z,2289.38
2022-08-02T10:06:02.093Z,1558.13
2022-08-02T10:06:56.514Z,939.38
2022-08-02T10:07:56.544Z,849.38
2022-08-02T10:08:56.579Z,1305.00
2022-08-02T10:09:56.607Z,1974.38
2022-08-02T10:10:56.638Z,1726.88
2022-08-02T10:11:56.672Z,2548.13
2022-08-02T10:12:56.705Z,2795.63
2022-08-02T10:13:56.736Z,2733.75
2022-08-02T10:14:56.771Z,2711.25
2022-08-02T10:15:56.818Z,2778.75
2022-08-02T10:16:56.834Z,2795.63
2022-08-02T10:17:56.878Z,2705.63
2022-08-02T10:18:56.899Z,2829.38
2022-08-02T10:20:02.999Z,2896.88
2022-08-02T10:20:56.965Z,2913.75
2022-08-02T10:21:56.999Z,2958.75
2022-08-02T10:22:57.036Z,2896.88
2022-08-02T10:23:57.069Z,2868.75
2022-08-02T10:24:57.100Z,2801.25
2022-08-02T10:25:57.135Z,2818.13
2022-08-02T10:26:57.173Z,2930.63
2022-08-02T10:28:05.205Z,3031.88
2022-08-02T10:28:57.243Z,2986.88
2022-08-02T10:29:57.277Z,2835.00
2022-08-02T10:30:57.313Z,956.25
2022-08-02T10:31:57.347Z,2295.00
2022-08-02T10:32:57.384Z,894.38
2022-08-02T10:33:57.432Z,736.88
2022-08-02T10:34:57.496Z,641.25
2022-08-02T10:36:06.722Z,731.25
2022-08-02T10:36:57.528Z,810.00
2022-08-02T10:37:57.570Z,1186.88
2022-08-02T10:38:57.594Z,2992.50
2022-08-02T10:39:57.634Z,725.63
2022-08-02T10:40:57.665Z,630.00
2022-08-02T10:41:57.702Z,2480.63
2022-08-02T10:42:57.734Z,2728.13
2022-08-02T10:43:57.766Z,2688.75
2022-08-02T10:44:57.800Z,2587.50
2022-08-02T10:45:57.843Z,2548.13
2022-08-02T10:46:57.866Z,2688.75
2022-08-02T10:47:57.904Z,2700.00
2022-08-02T10:48:57.972Z,2705.63
2022-08-02T10:49:58.014Z,2756.25
2022-08-02T10:50:58.004Z,2784.38
2022-08-02T10:51:58.039Z,2773.13
2022-08-02T10:52:58.075Z,2784.38
2022-08-02T10:53:58.109Z,2694.38
2022-08-02T10:54:58.143Z,2756.25
2022-08-02T10:55:58.190Z,2745.00
2022-08-02T10:56:58.214Z,2756.25
2022-08-02T10:57:58.248Z,2750.63
2022-08-02T10:58:58.282Z,2756.25
2022-08-02T10:59:58.319Z,2761.88
2022-08-02T11:00:58.444Z,2773.13
2022-08-02T11:02:00.861Z,2801.25
2022-08-02T11:02:58.427Z,2756.25
2022-08-02T11:03:58.463Z,2739.38
2022-08-02T11:04:58.502Z,2716.88
2022-08-02T11:05:58.555Z,2671.88
2022-08-02T11:06:58.572Z,2688.75
2022-08-02T11:07:58.611Z,2671.88
2022-08-02T11:08:58.648Z,2638.13
2022-08-02T11:09:58.684Z,2666.25
2022-08-02T11:10:58.722Z,2615.63
2022-08-02T11:11:58.770Z,2621.25
2022-08-02T11:12:58.797Z,2570.63
2022-08-02T11:13:58.834Z,2660.63
2022-08-02T11:14:58.872Z,2666.25
2022-08-02T11:15:58.911Z,2643.75
2022-08-02T11:16:58.950Z,2610.00
2022-08-02T11:17:58.988Z,2379.38
2022-08-02T11:18:59.025Z,461.25
2022-08-02T11:19:59.062Z,2621.25
2022-08-02T11:20:59.099Z,2643.75
2022-08-02T11:21:59.136Z,2621.25
2022-08-02T11:22:59.174Z,2615.63
2022-08-02T11:23:59.212Z,2475.00
2022-08-02T11:24:59.251Z,2587.50
2022-08-02T11:26:05.392Z,2587.50
2022-08-02T11:26:59.324Z,2576.25
2022-08-02T11:27:59.365Z,2576.25
2022-08-02T11:28:59.403Z,2559.38
2022-08-02T11:29:59.442Z,2553.75
2022-08-02T11:30:59.479Z,2559.38
2022-08-02T11:31:59.518Z,2598.75
2022-08-02T11:32:59.555Z,2615.63
2022-08-02T11:33:59.591Z,2632.50
2022-08-02T11:34:59.632Z,2587.50
2022-08-02T11:35:59.668Z,2525.63
2022-08-02T11:36:59.708Z,2508.75
2022-08-02T11:37:59.745Z,2491.88
2022-08-02T11:38:59.783Z,2469.38
2022-08-02T11:39:59.825Z,2469.38
2022-08-02T11:40:59.864Z,2469.38
2022-08-02T11:41:59.905Z,2362.50
2022-08-02T11:42:59.944Z,2458.13
2022-08-02T11:43:59.981Z,2452.50
2022-08-02T11:45:00.022Z,2441.25
2022-08-02T11:46:00.067Z,2497.50
2022-08-02T11:47:00.098Z,2503.13
2022-08-02T11:48:00.142Z,2548.13
2022-08-02T11:49:00.237Z,2536.88
2022-08-02T11:50:00.210Z,2244.38
2022-08-02T11:51:00.254Z,2480.63
2022-08-02T11:52:00.295Z,2621.25
2022-08-02T11:53:00.336Z,2683.13
2022-08-02T11:54:00.375Z,2846.25
2022-08-02T11:55:00.412Z,3009.38
2022-08-02T11:56:00.452Z,3279.38
2022-08-02T11:57:00.493Z,3594.38
2022-08-02T11:58:04.752Z,3695.63
2022-08-02T11:59:00.575Z,3943.13
2022-08-02T12:00:00.611Z,4061.25
2022-08-02T12:01:00.649Z,4033.13
2022-08-02T12:02:00.691Z,4207.50
2022-08-02T12:03:00.864Z,4393.13
2022-08-02T12:04:00.769Z,4511.25
2022-08-02T12:05:00.808Z,4477.50
2022-08-02T12:06:06.406Z,4252.50
2022-08-02T12:07:00.900Z,3971.25
2022-08-02T12:08:00.926Z,3988.13
2022-08-02T12:09:00.966Z,4095.00
2022-08-02T12:10:01.005Z,4027.50
2022-08-02T12:11:01.046Z,3948.75
2022-08-02T12:12:01.085Z,4072.50
2022-08-02T12:13:01.123Z,4275.00
2022-08-02T12:14:01.161Z,4471.88
2022-08-02T12:15:01.199Z,4556.25
2022-08-02T12:16:02.505Z,4635.00
2022-08-02T12:17:01.283Z,4736.25
2022-08-02T12:18:01.323Z,4438.13
2022-08-02T12:19:01.356Z,4111.88
2022-08-02T12:20:01.397Z,3982.50
2022-08-02T12:21:01.437Z,3954.38
2022-08-02T12:22:01.476Z,3960.00
2022-08-02T12:23:01.514Z,3948.75
2022-08-02T12:24:01.637Z,3920.63
2022-08-02T12:25:01.594Z,3802.50
2022-08-02T12:26:01.635Z,3965.63
2022-08-02T12:27:01.676Z,3976.88
2022-08-02T12:28:01.731Z,4044.38
2022-08-02T12:29:01.765Z,4134.38
2022-08-02T12:30:01.790Z,4331.25
2022-08-02T12:31:01.828Z,4123.13
2022-08-02T12:32:01.875Z,3971.25
2022-08-02T12:33:01.909Z,3982.50
2022-08-02T12:34:01.948Z,3909.38